Time;durP1;ratioP1;P1;durP2;ratioP2;P2;SDS_P1;SDS_P2;PMS_P1;PMS_P2;Temp;Humidity;BMP_temperature;BMP_pressure;BME280_temperature;BME280_humidity;BME280_pressure;Samples;Min_cycle;Max_cycle;Signal;HPM_P1;HPM_P2
2022/05/28 00:01:19;;;;;;;9.07;3.92;;;;;;;21.17;33.61;102839.81;5072530;28;20441;-74
2022/05/28 00:03:46;;;;;;;14.70;3.35;;;;;;;21.20;33.59;102833.56;5071438;28;20116;-74
2022/05/28 00:06:15;;;;;;;13.95;3.95;;;;;;;21.18;33.56;102831.13;5072829;28;20471;-74
2022/05/28 00:08:41;;;;;;;11.13;3.23;;;;;;;21.11;33.88;102827.25;5072836;28;20486;-74
2022/05/28 00:11:18;;;;;;;14.20;4.15;;;;;;;21.04;34.07;102827.75;5071539;28;20273;-73
2022/05/28 00:13:45;;;;;;;9.52;3.78;;;;;;;21.03;33.96;102821.38;5071434;28;20028;-74
2022/05/28 00:16:12;;;;;;;11.07;3.70;;;;;;;20.96;34.01;102829.44;5071281;28;20490;-73
2022/05/28 00:18:40;;;;;;;8.30;3.38;;;;;;;20.89;34.02;102822.75;5072313;28;20035;-74
2022/05/28 00:21:10;;;;;;;10.88;3.47;;;;;;;20.74;34.39;102824.13;5072148;28;20027;-74
2022/05/28 00:23:36;;;;;;;;;;;;;;;20.59;34.45;102817.16;5073322;28;20021;-73
2022/05/28 00:26:06;;;;;;;11.18;3.53;;;;;;;20.56;34.35;102828.13;5072383;28;19917;-74
2022/05/28 00:28:32;;;;;;;15.65;3.95;;;;;;;20.53;34.34;102824.00;5072547;28;20025;-74
2022/05/28 00:30:59;;;;;;;10.90;3.08;;;;;;;20.45;34.60;102827.63;5072488;28;20036;-73
2022/05/28 00:33:25;;;;;;;11.68;4.03;;;;;;;20.47;34.45;102826.16;5072094;28;20033;-78
2022/05/28 00:35:51;;;;;;;8.52;3.53;;;;;;;20.53;34.26;102828.75;5071194;28;20028;-74
2022/05/28 00:38:17;;;;;;;10.52;3.92;;;;;;;20.58;34.31;102831.38;5072356;28;20380;-73
2022/05/28 00:40:47;;;;;;;15.30;3.38;;;;;;;20.54;34.47;102835.94;5072230;28;20154;-74
2022/05/28 00:43:14;;;;;;;9.50;3.33;;;;;;;20.55;34.39;102835.59;5071999;28;20028;-74
2022/05/28 00:45:40;;;;;;;11.75;3.30;;;;;;;20.54;34.33;102833.97;5072135;28;20032;-73
2022/05/28 00:48:06;;;;;;;13.50;4.60;;;;;;;20.50;34.33;102828.28;5072309;28;20036;-74
2022/05/28 00:50:34;;;;;;;11.48;3.55;;;;;;;20.42;34.57;102823.53;5071129;28;20028;-73
2022/05/28 00:53:02;;;;;;;12.60;3.38;;;;;;;20.35;34.80;102826.00;5070634;28;20487;-73
2022/05/28 00:55:30;;;;;;;13.82;3.67;;;;;;;20.32;34.70;102829.41;5070879;28;20029;-74
2022/05/28 00:57:57;;;;;;;12.63;3.92;;;;;;;20.29;34.82;102824.53;5070882;28;20394;-73
2022/05/28 01:00:23;;;;;;;13.20;4.15;;;;;;;20.27;34.79;102824.06;5072154;28;20098;-74
2022/05/28 01:03:12;;;;;;;13.80;5.40;;;;;;;20.33;34.85;102821.91;5071905;28;20025;-73
2022/05/28 01:05:47;;;;;;;9.35;3.38;;;;;;;20.28;34.80;102827.63;5071595;28;20036;-73
2022/05/28 01:08:31;;;;;;;8.32;3.08;;;;;;;20.26;34.77;102825.19;5072165;28;20025;-77
2022/05/28 01:10:56;;;;;;;15.05;4.35;;;;;;;20.20;34.70;102824.53;5071879;28;20028;-74
2022/05/28 01:13:29;;;;;;;9.25;3.80;;;;;;;20.17;35.02;102833.50;5071641;28;20463;-73
2022/05/28 01:16:06;;;;;;;7.72;3.60;;;;;;;20.13;34.67;102827.00;5072152;28;20028;-74
2022/05/28 01:18:42;;;;;;;14.80;4.18;;;;;;;20.13;34.92;102815.09;5072069;28;20028;-73
2022/05/28 01:21:16;;;;;;;16.10;3.78;;;;;;;20.18;34.80;102817.69;5070790;28;20390;-74
2022/05/28 01:23:55;;;;;;;13.52;3.95;;;;;;;20.09;34.91;102814.91;5075592;28;20040;-73
2022/05/28 01:26:29;;;;;;;8.57;3.70;;;;;;;20.12;35.02;102811.50;5075608;28;20185;-73
2022/05/28 01:28:59;;;;;;;13.43;4.47;;;;;;;20.05;35.21;102802.84;5074577;28;20047;-77
2022/05/28 01:31:27;;;;;;;8.93;3.85;;;;;;;20.06;35.13;102804.47;5074530;28;20020;-74
2022/05/28 01:33:55;;;;;;;12.23;3.47;;;;;;;20.00;35.14;102807.75;5075671;28;20020;-74
2022/05/28 01:36:22;;;;;;;7.00;3.13;;;;;;;19.99;35.05;102814.44;5075694;28;20476;-74
2022/05/28 01:38:48;;;;;;;8.30;3.85;;;;;;;19.89;35.61;102805.31;5075502;28;20042;-74
2022/05/28 01:41:15;;;;;;;12.10;2.75;;;;;;;19.85;35.49;102809.03;5075473;28;20021;-73
2022/05/28 01:43:45;;;;;;;9.55;3.58;;;;;;;19.79;35.33;102808.38;5075334;28;20059;-73
2022/05/28 01:46:13;;;;;;;8.82;4.07;;;;;;;19.76;35.34;102808.22;5075516;28;20475;-75
2022/05/28 01:48:42;;;;;;;18.13;4.15;;;;;;;19.74;35.48;102797.47;5075452;28;20115;-75
2022/05/28 01:51:11;;;;;;;15.10;4.35;;;;;;;19.66;35.66;102795.50;5075345;28;20103;-73
2022/05/28 01:56:23;;;;;;;14.00;3.80;;;;;;;19.61;35.78;102807.56;5075182;28;20039;-73
2022/05/28 01:58:49;;;;;;;10.73;3.30;;;;;;;19.60;35.69;102807.91;5075163;28;20032;-73
2022/05/28 02:01:15;;;;;;;13.80;3.65;;;;;;;19.59;35.78;102807.09;5075232;28;20389;-74
2022/05/28 02:03:44;;;;;;;11.68;3.65;;;;;;;19.60;35.75;102814.25;5073640;28;20040;-73
2022/05/28 02:06:11;;;;;;;10.33;3.93;;;;;;;19.60;35.63;102821.75;5075099;28;20020;-74
2022/05/28 02:08:39;;;;;;;12.40;4.72;;;;;;;19.53;35.88;102813.06;5075045;28;20071;-73
2022/05/28 02:11:24;;;;;;;17.08;3.20;;;;;;;19.48;35.85;102822.34;5074962;28;20024;-72
2022/05/28 02:14:21;;;;;;;12.30;4.25;;;;;;;19.45;36.09;102816.66;5074967;28;20628;-74
2022/05/28 02:16:54;;;;;;;11.90;4.63;;;;;;;19.56;35.49;102818.78;5058346;28;20399;-73
2022/05/28 02:19:28;;;;;;;11.88;3.67;;;;;;;19.51;35.73;102807.03;5074706;28;20032;-73
2022/05/28 02:22:22;;;;;;;8.98;3.25;;;;;;;19.49;35.81;102806.53;5074605;28;20032;-74
2022/05/28 02:24:56;;;;;;;11.30;3.33;;;;;;;19.45;35.87;102808.34;5072345;28;20535;-73
2022/05/28 02:27:24;;;;;;;15.20;3.22;;;;;;;19.46;35.74;102798.88;5107270;28;20032;-74
2022/05/28 02:29:50;;;;;;;10.38;4.32;;;;;;;19.49;35.70;102803.75;5074478;28;20024;-74
2022/05/28 02:32:23;;;;;;;6.78;2.85;;;;;;;19.44;35.81;102806.72;5074575;28;20079;-74
2022/05/28 02:34:50;;;;;;;7.60;3.58;;;;;;;19.41;35.84;102816.47;5073977;28;20059;-73
2022/05/28 02:37:20;;;;;;;11.90;3.42;;;;;;;19.36;35.69;102809.13;5074417;28;20159;-74
2022/05/28 02:39:47;;;;;;;8.10;2.95;;;;;;;19.26;35.85;102803.88;5073021;28;20540;-73
2022/05/28 02:42:13;;;;;;;11.20;3.10;;;;;;;19.21;35.91;102801.28;5074320;28;20494;-73
2022/05/28 02:44:38;;;;;;;10.70;2.97;;;;;;;19.20;36.07;102798.81;5074387;28;20028;-73
2022/05/28 02:47:05;;;;;;;14.07;3.72;;;;;;;19.18;36.00;102793.59;5074376;28;20039;-79
2022/05/28 02:49:32;;;;;;;7.50;2.65;;;;;;;19.19;35.97;102800.75;5074408;28;20131;-73
2022/05/28 02:52:01;;;;;;;12.27;3.17;;;;;;;19.09;36.15;102809.38;5074274;28;20020;-74
2022/05/28 02:54:27;;;;;;;11.65;3.20;;;;;;;19.15;36.10;102810.06;5074203;28;20027;-76
2022/05/28 02:56:54;;;;;;;9.00;3.22;;;;;;;19.15;36.07;102810.06;5074096;28;20421;-73
2022/05/28 02:59:20;;;;;;;11.98;3.67;;;;;;;19.13;36.00;102813.97;5072829;28;20016;-74
2022/05/28 03:01:46;;;;;;;9.20;2.42;;;;;;;19.11;35.84;102812.63;5073956;28;20038;-72
2022/05/28 03:04:11;;;;;;;10.88;3.53;;;;;;;19.03;35.94;102814.25;5073769;28;20450;-74
2022/05/28 03:06:37;;;;;;;13.07;3.20;;;;;;;18.95;36.06;102811.44;5073917;28;20103;-74
2022/05/28 03:09:08;;;;;;;6.10;2.35;;;;;;;18.82;35.97;102808.47;5073918;28;20047;-74
2022/05/28 03:11:35;;;;;;;9.18;3.13;;;;;;;18.79;35.90;102811.06;5073841;28;20108;-73
2022/05/28 03:14:00;;;;;;;7.82;3.42;;;;;;;18.74;36.15;102803.72;5073779;28;20103;-77
2022/05/28 03:16:26;;;;;;;12.93;4.00;;;;;;;18.80;36.06;102813.50;5073791;28;20108;-74
2022/05/28 03:18:52;;;;;;;11.02;3.47;;;;;;;18.79;36.06;102817.41;5073585;28;20039;-73
2022/05/28 03:21:18;;;;;;;12.23;3.17;;;;;;;18.73;36.16;102812.31;5073408;28;20479;-74
2022/05/28 03:23:47;;;;;;;11.90;3.35;;;;;;;18.67;36.25;102811.66;5073690;28;20104;-74
2022/05/28 03:26:22;;;;;;;9.20;3.25;;;;;;;18.56;36.27;102813.84;5073349;28;20499;-79
2022/05/28 03:28:49;;;;;;;7.80;2.70;;;;;;;18.54;36.45;102807.00;5073315;28;20433;-73
2022/05/28 03:31:16;;;;;;;8.52;2.72;;;;;;;18.54;36.35;102804.22;5073450;28;20027;-79
2022/05/28 03:33:42;;;;;;;14.13;3.47;;;;;;;18.44;36.80;102807.22;5073435;28;20029;-74
2022/05/28 03:36:07;;;;;;;6.22;2.60;;;;;;;18.40;36.58;102811.78;5073352;28;20717;-80
2022/05/28 03:38:34;;;;;;;12.75;3.30;;;;;;;18.39;36.50;102807.38;5073289;28;20029;-73
2022/05/28 03:41:00;;;;;;;13.38;3.17;;;;;;;18.37;36.62;102804.13;5071878;28;20038;-73
2022/05/28 03:43:26;;;;;;;10.15;3.00;;;;;;;18.34;36.71;102811.09;5073176;28;20054;-74
2022/05/28 03:45:52;;;;;;;7.00;2.50;;;;;;;18.25;36.62;102808.28;5072935;28;20020;-73
2022/05/28 03:48:18;;;;;;;12.35;3.58;;;;;;;18.24;36.75;102809.41;5073208;28;20077;-75
2022/05/28 03:50:46;;;;;;;8.43;3.17;;;;;;;18.14;36.83;102817.16;5073027;28;20494;-74
2022/05/28 03:53:12;;;;;;;8.52;3.28;;;;;;;18.10;36.97;102816.13;5072957;28;20024;-74
2022/05/28 03:55:39;;;;;;;13.13;3.78;;;;;;;18.02;37.00;102814.94;5072665;28;20032;-73
2022/05/28 03:58:06;;;;;;;6.85;3.05;;;;;;;18.00;37.01;102809.72;5071607;28;20483;-73
2022/05/28 04:00:32;;;;;;;9.88;3.85;;;;;;;18.00;36.97;102803.38;5072853;28;20027;-74
2022/05/28 04:02:59;;;;;;;11.68;3.25;;;;;;;18.04;36.92;102804.38;5071438;28;20040;-74
2022/05/28 04:05:25;;;;;;;10.32;3.90;;;;;;;18.10;37.05;102797.59;5072491;28;20104;-73
2022/05/28 04:07:51;;;;;;;16.67;4.28;;;;;;;18.09;37.10;102798.72;5072887;28;20025;-73
2022/05/28 04:10:17;;;;;;;8.27;3.35;;;;;;;18.14;36.80;102809.66;5072737;28;20028;-73
2022/05/28 04:12:44;;;;;;;11.40;2.88;;;;;;;18.10;36.88;102814.19;5072775;28;20052;-74
2022/05/28 04:15:11;;;;;;;8.90;3.65;;;;;;;18.08;37.01;102808.16;5072776;28;20081;-74
2022/05/28 04:17:37;;;;;;;9.48;3.58;;;;;;;18.05;37.12;102799.66;5072603;28;20036;-73
2022/05/28 04:20:04;;;;;;;11.68;4.13;;;;;;;17.96;36.99;102799.59;5072291;28;20032;-73
2022/05/28 04:22:29;;;;;;;7.93;2.83;;;;;;;17.96;36.95;102794.06;5072669;28;20016;-73
2022/05/28 04:24:55;;;;;;;11.02;2.92;;;;;;;17.93;36.85;102786.41;5071877;28;20128;-76
2022/05/28 04:27:20;;;;;;;10.25;3.60;;;;;;;17.94;36.79;102791.59;5070932;28;20025;-74
2022/05/28 04:29:46;;;;;;;8.25;3.75;;;;;;;17.95;37.05;102798.78;5072496;28;20033;-78
2022/05/28 04:32:12;;;;;;;11.50;3.63;;;;;;;17.95;37.22;102804.31;5071081;28;20077;-73
2022/05/28 04:34:38;;;;;;;8.85;3.95;;;;;;;17.98;37.28;102806.44;5072434;28;20026;-73
2022/05/28 04:37:03;;;;;;;8.50;3.15;;;;;;;17.98;36.87;102798.13;5072304;28;20056;-73
2022/05/28 04:39:29;;;;;;;9.02;3.38;;;;;;;17.95;37.00;102792.44;5072226;28;20111;-73
2022/05/28 04:41:55;;;;;;;12.20;3.53;;;;;;;18.01;36.80;102796.72;5072370;28;20028;-75
2022/05/28 04:44:21;;;;;;;7.20;3.03;;;;;;;18.09;37.10;102792.38;5071019;28;20024;-73
2022/05/28 04:46:46;;;;;;;12.30;3.60;;;;;;;18.09;36.99;102793.19;5071028;28;20402;-73
2022/05/28 04:49:12;;;;;;;11.35;3.58;;;;;;;18.12;37.05;102797.25;5072379;28;20035;-74
2022/05/28 04:51:37;;;;;;;20.02;5.63;;;;;;;18.21;37.04;102795.38;5072276;28;20039;-73
2022/05/28 04:54:03;;;;;;;10.70;4.07;;;;;;;18.23;36.86;102790.34;5072294;28;20440;-75
2022/05/28 04:56:29;;;;;;;8.13;3.90;;;;;;;18.28;36.71;102796.56;5072970;28;20024;-73
2022/05/28 04:58:55;;;;;;;9.00;3.10;;;;;;;18.36;36.70;102794.97;5076061;28;20479;-74
2022/05/28 05:01:23;;;;;;;11.80;3.70;;;;;;;18.33;36.76;102803.09;5076379;28;20031;-73
2022/05/28 05:03:48;;;;;;;9.88;4.10;;;;;;;18.50;36.81;102808.75;5076308;28;20021;-73
2022/05/28 05:06:14;;;;;;;10.48;3.53;;;;;;;18.47;36.91;102809.38;5076273;28;20096;-73
2022/05/28 05:08:40;;;;;;;11.73;3.08;;;;;;;18.53;36.92;102803.41;5076378;28;20036;-73
2022/05/28 05:11:05;;;;;;;8.35;3.30;;;;;;;18.59;36.83;102806.88;5076218;28;20017;-73
2022/05/28 05:13:31;;;;;;;9.98;3.00;;;;;;;18.56;36.88;102807.47;5076637;28;20032;-73
2022/05/28 05:15:57;;;;;;;10.25;3.65;;;;;;;18.60;37.11;102805.72;5074832;28;20047;-74
2022/05/28 05:18:23;;;;;;;11.05;3.40;;;;;;;18.67;36.81;102808.88;5076006;28;20037;-73
2022/05/28 05:20:49;;;;;;;15.40;4.22;;;;;;;18.66;37.18;102807.22;5075609;28;20043;-75
2022/05/28 05:23:15;;;;;;;14.38;4.05;;;;;;;18.71;36.90;102792.44;5075930;28;20113;-74
2022/05/28 05:25:40;;;;;;;15.85;3.38;;;;;;;18.74;37.00;102813.94;5075488;28;20076;-73
2022/05/28 05:28:06;;;;;;;13.90;3.30;;;;;;;18.82;37.09;102814.00;5075843;28;20724;-73
2022/05/28 05:30:32;;;;;;;15.82;3.90;;;;;;;18.92;36.84;102823.16;5075829;28;20097;-74
2022/05/28 05:32:58;;;;;;;16.15;3.03;;;;;;;18.96;36.95;102815.84;5075750;28;20466;-73
2022/05/28 05:35:23;;;;;;;14.63;3.80;;;;;;;19.06;36.96;102801.72;5075684;28;20027;-78
2022/05/28 05:37:49;;;;;;;14.43;4.50;;;;;;;19.13;36.97;102802.06;5075553;28;20117;-74
2022/05/28 05:40:15;;;;;;;10.85;3.75;;;;;;;19.11;37.20;102791.28;5075562;28;20027;-73
2022/05/28 05:42:41;;;;;;;9.13;3.80;;;;;;;19.16;37.06;102803.38;5075567;28;20091;-73
2022/05/28 05:45:08;;;;;;;10.05;3.67;;;;;;;19.19;37.22;102808.25;5075464;28;20555;-73
2022/05/28 05:47:34;;;;;;;11.88;4.00;;;;;;;19.24;37.11;102816.44;5075464;28;20519;-73
2022/05/28 05:49:59;;;;;;;9.90;3.38;;;;;;;19.37;37.11;102821.03;5075417;28;20021;-74
2022/05/28 05:52:25;;;;;;;12.60;3.88;;;;;;;19.50;37.38;102822.06;5075047;28;20028;-74
2022/05/28 05:54:51;;;;;;;11.60;3.00;;;;;;;19.89;37.04;102813.63;5075239;28;20028;-73
2022/05/28 05:57:17;;;;;;;12.63;3.38;;;;;;;20.14;36.83;102808.38;5075161;28;20036;-74
2022/05/28 05:59:43;;;;;;;16.55;3.97;;;;;;;20.27;37.02;102810.16;5075365;28;20083;-74
2022/05/28 06:02:09;;;;;;;14.05;4.43;;;;;;;20.35;36.69;102803.78;5075170;28;20043;-73
2022/05/28 06:04:35;;;;;;;15.30;4.18;;;;;;;20.48;36.80;102822.25;5075197;28;20099;-78
2022/05/28 06:07:03;;;;;;;18.48;3.85;;;;;;;20.48;37.10;102821.44;5075103;28;20032;-73
2022/05/28 06:09:29;;;;;;;18.50;4.47;;;;;;;20.56;36.99;102825.34;5075090;28;20089;-73
2022/05/28 06:11:55;;;;;;;12.15;4.35;;;;;;;20.53;37.03;102824.00;5073713;28;20032;-74
2022/05/28 06:14:21;;;;;;;12.02;3.78;;;;;;;20.64;36.90;102813.38;5073795;28;20032;-74
2022/05/28 06:16:46;;;;;;;18.75;5.50;;;;;;;20.76;36.92;102824.59;5074941;28;20032;-73
2022/05/28 06:19:13;;;;;;;13.77;3.72;;;;;;;21.00;36.61;102827.59;5074649;28;20028;-74
2022/05/28 06:21:39;;;;;;;17.33;4.75;;;;;;;20.89;37.16;102818.03;5074778;28;20580;-74
2022/05/28 06:24:05;;;;;;;12.82;4.32;;;;;;;21.04;36.75;102827.75;5074810;28;20028;-73
2022/05/28 06:26:31;;;;;;;12.32;4.32;;;;;;;21.06;36.79;102822.69;5074084;28;20097;-73
2022/05/28 06:28:56;;;;;;;13.15;3.70;;;;;;;21.09;36.58;102827.59;5074116;28;20040;-73
2022/05/28 06:31:22;;;;;;;10.32;3.28;;;;;;;21.15;36.63;102825.41;5073205;28;20028;-73
2022/05/28 06:33:48;;;;;;;10.60;3.80;;;;;;;21.27;36.56;102823.59;5073443;28;20027;-87
2022/05/28 06:36:14;;;;;;;13.82;3.42;;;;;;;21.36;36.51;102826.31;5074595;28;20032;-78
2022/05/28 06:38:40;;;;;;;12.55;3.13;;;;;;;21.52;36.25;102826.53;5074401;28;20032;-75
2022/05/28 06:41:07;;;;;;;11.00;3.47;;;;;;;21.70;36.03;102822.50;5074437;28;20028;-74
2022/05/28 06:43:33;;;;;;;13.43;4.40;;;;;;;21.81;36.06;102823.69;5074120;28;20021;-74
2022/05/28 06:46:03;;;;;;;20.77;3.90;;;;;;;21.91;35.84;102827.22;5074228;28;20028;-74
2022/05/28 06:48:28;;;;;;;;;;;;;;;22.05;36.07;102828.56;5074751;28;20017;-74
2022/05/28 06:51:03;;;;;;;14.80;3.53;;;;;;;22.34;35.27;102818.50;5074258;28;19919;-75
2022/05/28 06:53:40;;;;;;;10.20;3.45;;;;;;;22.47;35.43;102811.81;5073951;28;20399;-75
2022/05/28 06:56:07;;;;;;;13.70;3.78;;;;;;;22.71;35.22;102819.41;5074145;28;20506;-77
2022/05/28 06:58:33;;;;;;;15.05;3.95;;;;;;;22.80;35.17;102810.94;5074081;28;20032;-76
2022/05/28 07:01:00;;;;;;;12.30;3.65;;;;;;;22.88;35.10;102812.84;5074131;28;20142;-74
2022/05/28 07:03:27;;;;;;;18.48;3.72;;;;;;;23.13;34.96;102817.28;5072656;28;20081;-74
2022/05/28 07:05:53;;;;;;;9.40;2.90;;;;;;;23.11;34.87;102819.56;5073954;28;20021;-77
2022/05/28 07:08:20;;;;;;;14.43;4.25;;;;;;;23.33;34.58;102823.06;5073941;28;20056;-77
2022/05/28 07:10:48;;;;;;;7.75;3.72;;;;;;;23.40;34.37;102826.88;5073991;28;20553;-79
2022/05/28 07:13:15;;;;;;;13.52;3.92;;;;;;;23.46;34.22;102819.91;5073841;28;20103;-75
2022/05/28 07:15:41;;;;;;;20.35;4.57;;;;;;;23.58;33.97;102819.06;5073437;28;20032;-78
2022/05/28 07:18:07;;;;;;;11.25;2.53;;;;;;;23.72;33.62;102815.91;5073649;28;20040;-75
2022/05/28 07:20:34;;;;;;;13.68;3.25;;;;;;;23.82;33.42;102809.84;5073160;28;20476;-73
2022/05/28 07:23:06;;;;;;;11.70;3.65;;;;;;;23.88;33.17;102814.03;5073665;28;20634;-75
2022/05/28 07:25:33;;;;;;;12.32;3.05;;;;;;;23.96;33.15;102821.44;5073400;28;20070;-77
2022/05/28 07:27:59;;;;;;;7.93;3.45;;;;;;;23.93;33.16;102824.91;5072191;28;20056;-81
2022/05/28 07:30:25;;;;;;;9.90;3.28;;;;;;;23.90;32.99;102828.44;5073528;28;20061;-79
2022/05/28 07:32:50;;;;;;;26.20;4.13;;;;;;;23.79;33.04;102825.31;5073302;28;20357;-75
2022/05/28 07:35:16;;;;;;;8.63;2.30;;;;;;;23.84;32.86;102831.81;5073461;28;20064;-76
2022/05/28 07:37:41;;;;;;;14.30;3.05;;;;;;;23.80;32.77;102835.34;5073060;28;20452;-76
2022/05/28 07:40:07;;;;;;;18.10;3.65;;;;;;;23.88;32.76;102835.50;5072664;28;20039;-78
2022/05/28 07:42:33;;;;;;;12.23;3.58;;;;;;;23.85;32.74;102820.28;5071889;28;20025;-80
2022/05/28 07:44:58;;;;;;;9.82;3.10;;;;;;;23.82;32.78;102817.41;5073017;28;20033;-77
2022/05/28 07:47:24;;;;;;;10.00;2.92;;;;;;;23.83;32.68;102813.47;5073196;28;20029;-78
2022/05/28 07:49:50;;;;;;;10.50;3.05;;;;;;;23.85;32.79;102819.50;5073222;28;20020;-77
2022/05/28 07:52:17;;;;;;;10.20;2.75;;;;;;;23.76;32.72;102823.25;5073103;28;20463;-76
2022/05/28 07:54:43;;;;;;;8.98;3.05;;;;;;;23.72;32.78;102824.28;5073180;28;20056;-75
2022/05/28 07:57:08;;;;;;;11.70;3.25;;;;;;;23.82;32.84;102825.78;5071627;28;20063;-77
2022/05/28 07:59:34;;;;;;;10.70;2.20;;;;;;;23.93;32.40;102827.72;5071212;28;20074;-77
2022/05/28 08:01:59;;;;;;;9.70;2.45;;;;;;;23.99;32.11;102823.50;5068634;28;20063;-77
2022/05/28 08:04:25;;;;;;;8.95;2.15;;;;;;;24.10;32.08;102812.63;5071062;28;20037;-77
2022/05/28 08:06:51;;;;;;;7.80;2.15;;;;;;;24.07;31.96;102813.34;5071441;28;20046;-79
2022/05/28 08:09:16;;;;;;;9.88;2.90;;;;;;;24.17;31.84;102809.22;5071352;28;20363;-77
2022/05/28 08:11:42;;;;;;;10.60;2.55;;;;;;;24.16;31.74;102808.41;5071325;28;20083;-77
2022/05/28 08:14:08;;;;;;;5.50;1.35;;;;;;;24.16;31.67;102805.63;5071669;28;20066;-76
2022/05/28 08:16:34;;;;;;;9.25;2.42;;;;;;;24.21;31.28;102810.97;5071495;28;20103;-77
2022/05/28 08:19:00;;;;;;;8.07;2.78;;;;;;;24.18;32.31;102808.91;5071364;28;20037;-76
2022/05/28 08:24:10;;;;;;;11.75;2.60;;;;;;;24.24;32.28;102815.81;5068182;28;20111;-77
2022/05/28 08:26:38;;;;;;;7.70;2.45;;;;;;;24.34;31.95;102803.38;5070679;28;20131;-77
2022/05/28 08:29:04;;;;;;;11.73;2.58;;;;;;;24.33;32.45;102796.13;5070961;28;20025;-79
2022/05/28 08:31:30;;;;;;;5.35;2.17;;;;;;;24.28;31.92;102791.59;5070494;28;20032;-78
2022/05/28 08:33:56;;;;;;;9.77;2.33;;;;;;;24.32;31.87;102778.56;5070451;28;20728;-76
2022/05/28 08:36:22;;;;;;;5.68;1.98;;;;;;;24.38;32.06;102803.44;5078553;28;20039;-76
2022/05/28 08:38:47;;;;;;;7.40;1.98;;;;;;;24.44;31.80;102805.63;5081464;28;20028;-78
2022/05/28 08:41:26;;;;;;;8.45;2.03;;;;;;;24.32;32.24;102806.50;5075313;28;20548;-76
2022/05/28 08:44:10;;;;;;;12.10;2.35;;;;;;;24.35;31.66;102810.59;5074972;28;20025;-78
2022/05/28 08:46:36;;;;;;;6.25;2.47;;;;;;;24.30;32.24;102816.38;5079610;28;20107;-78
2022/05/28 08:49:04;;;;;;;8.60;2.67;;;;;;;24.49;31.75;102805.38;5082017;28;20024;-77
2022/05/28 08:51:39;;;;;;;8.35;2.20;;;;;;;24.75;31.96;102818.81;5079178;28;20149;-77
2022/05/28 08:54:10;;;;;;;5.35;1.92;;;;;;;24.79;31.77;102818.91;5079303;28;20471;-79
2022/05/28 08:56:38;;;;;;;5.53;1.30;;;;;;;24.80;31.65;102815.75;5080411;28;20604;-79
2022/05/28 08:59:08;;;;;;;5.80;1.42;;;;;;;24.44;31.13;102800.03;5074901;28;20033;-78
2022/05/28 09:01:38;;;;;;;6.63;1.77;;;;;;;24.61;31.28;102799.69;5071592;28;20086;-77
2022/05/28 09:04:10;;;;;;;5.65;1.40;;;;;;;24.85;31.03;102797.88;5072242;28;20516;-77
2022/05/28 09:06:51;;;;;;;3.97;1.63;;;;;;;24.64;31.52;102803.78;5071272;28;20039;-77
2022/05/28 09:09:17;;;;;;;8.88;2.47;;;;;;;24.90;31.81;102809.63;5071186;28;20070;-77
2022/05/28 09:12:02;;;;;;;6.10;1.65;;;;;;;24.94;31.35;102818.09;5070382;28;20706;-77
2022/05/28 09:14:37;;;;;;;7.90;1.88;;;;;;;25.07;31.66;102813.22;5087828;28;20028;-78
2022/05/28 09:17:26;;;;;;;7.03;1.75;;;;;;;24.90;30.91;102809.63;5090889;28;20556;-77
2022/05/28 09:19:55;;;;;;;4.07;1.80;;;;;;;25.01;31.59;102809.06;5072777;28;20024;-78
2022/05/28 09:22:24;;;;;;;9.88;1.67;;;;;;;25.23;31.84;102796.41;5070798;28;20475;-77
2022/05/28 09:24:50;;;;;;;8.43;2.17;;;;;;;25.39;31.67;102806.44;5069693;28;20051;-81
2022/05/28 09:27:43;;;;;;;8.25;2.38;;;;;;;25.43;31.55;102798.09;5068316;28;20024;-76
2022/05/28 09:30:23;;;;;;;3.97;1.38;;;;;;;25.37;31.31;102793.94;5052416;28;20484;-77
2022/05/28 09:33:01;;;;;;;6.20;2.13;;;;;;;25.53;30.88;102800.31;5061308;28;20016;-77
2022/05/28 09:36:26;;;;;;;5.40;2.15;;;;;;;25.69;30.53;102798.28;5071459;28;20050;-77
2022/05/28 09:39:29;;;;;;;5.18;1.33;;;;;;;25.63;30.23;102798.94;5029240;28;20030;-77
2022/05/28 09:42:13;;;;;;;8.85;2.22;;;;;;;25.88;31.03;102797.50;5013262;28;20042;-76
2022/05/28 09:44:59;;;;;;;15.07;2.40;;;;;;;25.80;30.92;102803.31;5065534;28;20374;-76
2022/05/28 09:47:25;;;;;;;8.88;2.22;;;;;;;25.98;30.84;102801.69;5075123;28;20067;-76
2022/05/28 09:49:53;;;;;;;6.53;1.70;;;;;;;26.17;30.55;102789.66;5073573;28;20056;-77
2022/05/28 09:52:24;;;;;;;8.38;2.95;;;;;;;25.82;30.98;102795.34;5060976;28;20016;-77
2022/05/28 09:54:50;;;;;;;6.72;2.30;;;;;;;25.95;30.83;102794.84;5090256;28;20143;-78
2022/05/28 09:57:27;;;;;;;8.25;2.63;;;;;;;26.05;30.90;102796.22;5095166;28;20099;-77
2022/05/28 10:00:01;;;;;;;6.80;2.17;;;;;;;25.94;30.47;102789.63;5094163;28;20026;-76
2022/05/28 10:02:32;;;;;;;8.70;2.60;;;;;;;25.77;30.36;102790.88;5094543;28;20050;-77
2022/05/28 10:05:32;;;;;;;8.15;2.13;;;;;;;25.63;30.02;102787.75;5093898;28;20031;-77
2022/05/28 10:08:09;;;;;;;11.15;2.25;;;;;;;25.52;30.09;102795.88;5070593;28;20071;-77
2022/05/28 10:10:36;;;;;;;6.38;1.75;;;;;;;25.53;29.99;102803.09;5083574;28;20029;-76
2022/05/28 10:13:16;;;;;;;11.45;2.47;;;;;;;25.46;30.14;102789.75;5073677;28;20051;-77
2022/05/28 10:15:46;;;;;;;7.53;2.08;;;;;;;25.39;30.44;102788.78;5074296;28;20502;-77
2022/05/28 10:18:25;;;;;;;9.68;2.08;;;;;;;25.37;30.46;102783.56;5074465;28;20441;-77
2022/05/28 10:21:20;;;;;;;7.28;1.45;;;;;;;25.46;30.19;102788.94;5074092;28;20029;-77
2022/05/28 10:23:54;;;;;;;6.68;1.90;;;;;;;25.38;30.66;102782.38;5074771;28;20036;-78
2022/05/28 10:26:31;;;;;;;8.02;2.30;;;;;;;25.67;30.03;102778.22;5074587;28;20063;-77
2022/05/28 10:29:05;;;;;;;5.93;1.80;;;;;;;25.91;30.08;102779.13;5074715;28;20043;-77
2022/05/28 10:31:36;;;;;;;5.13;2.40;;;;;;;25.89;30.93;102787.91;5074517;28;20495;-78
2022/05/28 10:34:02;;;;;;;11.30;2.15;;;;;;;25.93;30.86;102791.59;5074574;28;20028;-77
2022/05/28 10:36:31;;;;;;;5.40;1.40;;;;;;;25.71;30.65;102789.50;5072950;28;20028;-77
2022/05/28 10:39:14;;;;;;;13.23;3.05;;;;;;;25.80;30.47;102780.91;5068990;28;20032;-76
2022/05/28 10:41:42;;;;;;;9.65;2.45;;;;;;;25.88;30.67;102789.09;5069905;28;20040;-75
2022/05/28 10:44:09;;;;;;;9.05;2.55;;;;;;;25.88;30.85;102779.88;5072046;28;20020;-76
2022/05/28 10:46:41;;;;;;;9.77;2.83;;;;;;;25.87;30.95;102778.28;5071459;28;20024;-76
2022/05/28 10:49:31;;;;;;;8.43;2.80;;;;;;;26.14;30.56;102776.38;5070349;28;20043;-76
2022/05/28 10:52:15;;;;;;;;;;;;;;;26.07;31.17;102782.69;5071853;28;20024;-76
2022/05/28 10:54:49;;;;;;;11.15;2.75;;;;;;;26.26;30.89;102774.22;5067997;28;19957;-76
2022/05/28 10:57:40;;;;;;;6.80;2.03;;;;;;;26.08;30.87;102772.28;5071936;28;20032;-77
2022/05/28 11:00:29;;;;;;;6.65;1.63;;;;;;;26.10;30.62;102781.94;5071043;28;20066;-76
2022/05/28 11:03:45;;;;;;;5.43;1.52;;;;;;;26.07;30.82;102776.25;5071485;28;20032;-76
2022/05/28 11:06:10;;;;;;;11.10;2.15;;;;;;;26.18;30.56;102768.88;5054513;28;20095;-76
2022/05/28 11:08:51;;;;;;;19.15;3.78;;;;;;;26.16;31.44;102771.25;5072553;28;20024;-76
2022/05/28 11:12:05;;;;;;;7.72;2.00;;;;;;;26.11;31.37;102774.34;5068224;28;20113;-76
2022/05/28 11:14:56;;;;;;;8.48;2.28;;;;;;;26.20;31.15;102775.72;5050072;28;20059;-76
2022/05/28 11:17:53;;;;;;;4.05;1.92;;;;;;;26.17;31.07;102782.06;5074115;28;20403;-76
2022/05/28 11:20:19;;;;;;;6.35;1.85;;;;;;;26.25;30.54;102780.22;5021237;28;20672;-77
2022/05/28 11:23:13;;;;;;;5.88;1.88;;;;;;;26.19;29.67;102778.88;5074593;28;20386;-76
2022/05/28 11:26:00;;;;;;;4.93;1.63;;;;;;;26.44;30.08;102768.97;5072568;28;20045;-76
2022/05/28 11:28:56;;;;;;;6.03;2.03;;;;;;;26.38;30.62;102764.03;5070860;28;20063;-77
2022/05/28 11:31:36;;;;;;;6.82;2.00;;;;;;;26.37;30.13;102762.38;5074508;28;20099;-76
2022/05/28 11:34:19;;;;;;;9.98;2.13;;;;;;;26.77;29.39;102757.13;5073408;28;20032;-76
2022/05/28 11:36:51;;;;;;;5.90;1.50;;;;;;;26.80;29.30;102761.97;5107538;27;20588;-76
2022/05/28 11:39:47;;;;;;;3.78;1.23;;;;;;;26.87;29.15;102761.28;5074910;28;20024;-76
2022/05/28 11:42:29;;;;;;;6.00;1.70;;;;;;;27.02;28.93;102754.69;5072751;28;20042;-77